Ross Shire, United Kingdom
Current Conditions -  °F | °C
As of 3:20 AM on Saturday 01 Nov 2014 (Local Time) from EGPE Reporting Station
Few Clouds Few Clouds  
Wind Chill: 50°   Ceiling: Unl
Heat Index: 50°   Visibility: 6mi
Dew Point: 48°   Wind: 9mph
Humidity: 94%   Direction: 190°S
Pressure: 29.53"   Gusts: NA
Location:  57.61°N, 4.44°W
Report Text: EGPE 010320Z 19008KT 9999 FEW010 10/09 Q1000
Loading
Personal Weather Stations






























Interactive Weather Map
Tropical Storm Tracking
New forecast layout! Learn more

10-Day Weather Forecast

Advertisements
Track Severe Weather on mobile